sensor_id;sensor_type;location;lat;lon;timestamp;P1;durP1;ratioP1;P2;durP2;ratioP2
26594;SDS011;14238;49.496;8.154;2023-07-13T00:01:11;5.83;;;2.30;;
26594;SDS011;14238;49.496;8.154;2023-07-13T00:03:38;2.50;;;2.30;;
26594;SDS011;14238;49.496;8.154;2023-07-13T00:06:05;2.57;;;2.13;;
26594;SDS011;14238;49.496;8.154;2023-07-13T00:08:32;2.80;;;2.00;;
26594;SDS011;14238;49.496;8.154;2023-07-13T00:10:58;2.33;;;2.13;;
26594;SDS011;14238;49.496;8.154;2023-07-13T00:13:24;2.00;;;1.90;;
26594;SDS011;14238;49.496;8.154;2023-07-13T00:15:49;2.43;;;2.20;;
26594;SDS011;14238;49.496;8.154;2023-07-13T00:18:15;2.23;;;2.13;;
26594;SDS011;14238;49.496;8.154;2023-07-13T00:20:41;2.93;;;2.20;;
26594;SDS011;14238;49.496;8.154;2023-07-13T00:23:06;2.53;;;2.07;;
26594;SDS011;14238;49.496;8.154;2023-07-13T00:25:33;4.00;;;2.30;;
26594;SDS011;14238;49.496;8.154;2023-07-13T00:28:00;3.83;;;2.40;;
26594;SDS011;14238;49.496;8.154;2023-07-13T00:30:25;4.20;;;2.53;;
26594;SDS011;14238;49.496;8.154;2023-07-13T00:32:51;3.00;;;2.23;;
26594;SDS011;14238;49.496;8.154;2023-07-13T00:35:17;2.50;;;2.30;;
26594;SDS011;14238;49.496;8.154;2023-07-13T00:37:42;2.60;;;2.50;;
26594;SDS011;14238;49.496;8.154;2023-07-13T00:40:09;2.07;;;1.90;;
26594;SDS011;14238;49.496;8.154;2023-07-13T00:42:37;2.80;;;2.30;;
26594;SDS011;14238;49.496;8.154;2023-07-13T00:47:37;3.80;;;2.63;;
26594;SDS011;14238;49.496;8.154;2023-07-13T00:50:03;2.10;;;2.00;;
26594;SDS011;14238;49.496;8.154;2023-07-13T00:52:33;2.50;;;2.40;;
26594;SDS011;14238;49.496;8.154;2023-07-13T00:55:01;5.27;;;2.27;;
26594;SDS011;14238;49.496;8.154;2023-07-13T00:57:27;2.57;;;2.37;;
26594;SDS011;14238;49.496;8.154;2023-07-13T00:59:54;2.50;;;2.30;;
26594;SDS011;14238;49.496;8.154;2023-07-13T01:02:23;2.37;;;2.23;;
26594;SDS011;14238;49.496;8.154;2023-07-13T01:04:49;4.63;;;2.47;;
26594;SDS011;14238;49.496;8.154;2023-07-13T01:07:15;2.60;;;2.30;;
26594;SDS011;14238;49.496;8.154;2023-07-13T01:09:41;3.10;;;2.10;;
26594;SDS011;14238;49.496;8.154;2023-07-13T01:12:07;2.83;;;2.67;;
26594;SDS011;14238;49.496;8.154;2023-07-13T01:14:33;3.33;;;3.00;;
26594;SDS011;14238;49.496;8.154;2023-07-13T01:16:58;2.73;;;2.53;;
26594;SDS011;14238;49.496;8.154;2023-07-13T01:19:32;2.63;;;2.43;;
26594;SDS011;14238;49.496;8.154;2023-07-13T01:22:01;2.53;;;2.30;;
26594;SDS011;14238;49.496;8.154;2023-07-13T01:24:27;2.93;;;2.67;;
26594;SDS011;14238;49.496;8.154;2023-07-13T01:26:53;2.57;;;2.37;;
26594;SDS011;14238;49.496;8.154;2023-07-13T01:29:19;2.87;;;2.67;;
26594;SDS011;14238;49.496;8.154;2023-07-13T01:31:45;3.00;;;2.40;;
26594;SDS011;14238;49.496;8.154;2023-07-13T01:34:11;2.53;;;2.33;;
26594;SDS011;14238;49.496;8.154;2023-07-13T01:36:37;3.00;;;2.80;;
26594;SDS011;14238;49.496;8.154;2023-07-13T01:39:02;3.40;;;2.83;;
26594;SDS011;14238;49.496;8.154;2023-07-13T01:41:28;3.00;;;2.80;;
26594;SDS011;14238;49.496;8.154;2023-07-13T01:43:54;2.60;;;2.40;;
26594;SDS011;14238;49.496;8.154;2023-07-13T01:46:19;3.10;;;2.23;;
26594;SDS011;14238;49.496;8.154;2023-07-13T01:48:45;2.67;;;2.47;;
26594;SDS011;14238;49.496;8.154;2023-07-13T01:51:10;4.40;;;2.53;;
26594;SDS011;14238;49.496;8.154;2023-07-13T01:53:36;5.33;;;3.30;;
26594;SDS011;14238;49.496;8.154;2023-07-13T01:56:01;4.40;;;3.00;;
26594;SDS011;14238;49.496;8.154;2023-07-13T01:58:27;3.17;;;2.97;;
26594;SDS011;14238;49.496;8.154;2023-07-13T02:00:52;3.13;;;2.87;;
26594;SDS011;14238;49.496;8.154;2023-07-13T02:03:18;2.70;;;2.60;;
26594;SDS011;14238;49.496;8.154;2023-07-13T02:05:44;3.20;;;3.00;;
26594;SDS011;14238;49.496;8.154;2023-07-13T02:08:10;3.07;;;2.77;;
26594;SDS011;14238;49.496;8.154;2023-07-13T02:10:36;2.87;;;2.70;;
26594;SDS011;14238;49.496;8.154;2023-07-13T02:13:04;4.00;;;3.03;;
26594;SDS011;14238;49.496;8.154;2023-07-13T02:15:30;2.90;;;2.70;;
26594;SDS011;14238;49.496;8.154;2023-07-13T02:17:56;3.27;;;3.07;;
26594;SDS011;14238;49.496;8.154;2023-07-13T02:20:23;5.07;;;3.20;;
26594;SDS011;14238;49.496;8.154;2023-07-13T02:22:49;3.00;;;2.80;;
26594;SDS011;14238;49.496;8.154;2023-07-13T02:25:14;3.93;;;3.20;;
26594;SDS011;14238;49.496;8.154;2023-07-13T02:27:40;4.70;;;3.10;;
26594;SDS011;14238;49.496;8.154;2023-07-13T02:30:06;4.50;;;2.77;;
26594;SDS011;14238;49.496;8.154;2023-07-13T02:32:32;3.40;;;3.03;;
26594;SDS011;14238;49.496;8.154;2023-07-13T02:34:58;4.00;;;2.77;;
26594;SDS011;14238;49.496;8.154;2023-07-13T02:37:24;3.30;;;3.10;;
26594;SDS011;14238;49.496;8.154;2023-07-13T02:39:49;3.43;;;3.23;;
26594;SDS011;14238;49.496;8.154;2023-07-13T02:42:15;2.77;;;2.57;;
26594;SDS011;14238;49.496;8.154;2023-07-13T02:44:41;2.93;;;2.73;;
26594;SDS011;14238;49.496;8.154;2023-07-13T02:47:06;3.53;;;3.23;;
26594;SDS011;14238;49.496;8.154;2023-07-13T02:49:32;3.80;;;3.50;;
26594;SDS011;14238;49.496;8.154;2023-07-13T02:51:57;3.80;;;3.50;;
26594;SDS011;14238;49.496;8.154;2023-07-13T02:54:23;3.90;;;3.10;;
26594;SDS011;14238;49.496;8.154;2023-07-13T02:56:48;4.10;;;3.13;;
26594;SDS011;14238;49.496;8.154;2023-07-13T02:59:14;3.90;;;3.60;;
26594;SDS011;14238;49.496;8.154;2023-07-13T03:01:40;5.80;;;2.80;;
26594;SDS011;14238;49.496;8.154;2023-07-13T03:04:06;3.30;;;2.60;;
26594;SDS011;14238;49.496;8.154;2023-07-13T03:06:32;3.00;;;2.80;;
26594;SDS011;14238;49.496;8.154;2023-07-13T03:08:58;2.67;;;2.50;;
26594;SDS011;14238;49.496;8.154;2023-07-13T03:11:25;3.23;;;2.93;;
26594;SDS011;14238;49.496;8.154;2023-07-13T03:13:51;3.43;;;2.70;;
26594;SDS011;14238;49.496;8.154;2023-07-13T03:16:16;3.97;;;2.80;;
26594;SDS011;14238;49.496;8.154;2023-07-13T03:18:42;3.60;;;2.70;;
26594;SDS011;14238;49.496;8.154;2023-07-13T03:21:09;3.10;;;2.80;;
26594;SDS011;14238;49.496;8.154;2023-07-13T03:23:34;5.00;;;2.67;;
26594;SDS011;14238;49.496;8.154;2023-07-13T03:26:01;3.07;;;2.77;;
26594;SDS011;14238;49.496;8.154;2023-07-13T03:28:32;2.87;;;2.70;;
26594;SDS011;14238;49.496;8.154;2023-07-13T03:30:59;3.40;;;3.10;;
26594;SDS011;14238;49.496;8.154;2023-07-13T03:33:29;3.50;;;2.77;;
26594;SDS011;14238;49.496;8.154;2023-07-13T03:35:55;3.10;;;2.80;;
26594;SDS011;14238;49.496;8.154;2023-07-13T03:38:21;5.63;;;3.00;;
26594;SDS011;14238;49.496;8.154;2023-07-13T03:40:46;3.27;;;3.00;;
26594;SDS011;14238;49.496;8.154;2023-07-13T03:43:12;3.13;;;2.93;;
26594;SDS011;14238;49.496;8.154;2023-07-13T03:45:38;3.43;;;2.93;;
26594;SDS011;14238;49.496;8.154;2023-07-13T03:48:04;2.93;;;2.70;;
26594;SDS011;14238;49.496;8.154;2023-07-13T03:50:30;4.27;;;2.87;;
26594;SDS011;14238;49.496;8.154;2023-07-13T03:52:56;2.83;;;2.73;;
26594;SDS011;14238;49.496;8.154;2023-07-13T03:55:22;4.77;;;2.73;;
26594;SDS011;14238;49.496;8.154;2023-07-13T03:57:52;4.27;;;3.00;;
26594;SDS011;14238;49.496;8.154;2023-07-13T04:00:37;5.10;;;3.40;;
26594;SDS011;14238;49.496;8.154;2023-07-13T04:03:03;3.30;;;3.00;;
26594;SDS011;14238;49.496;8.154;2023-07-13T04:05:28;2.93;;;2.73;;
26594;SDS011;14238;49.496;8.154;2023-07-13T04:07:54;3.57;;;2.90;;
26594;SDS011;14238;49.496;8.154;2023-07-13T04:10:19;2.97;;;2.47;;
26594;SDS011;14238;49.496;8.154;2023-07-13T04:12:45;3.20;;;3.00;;
26594;SDS011;14238;49.496;8.154;2023-07-13T04:15:10;2.60;;;2.50;;
26594;SDS011;14238;49.496;8.154;2023-07-13T04:17:36;3.60;;;2.50;;
26594;SDS011;14238;49.496;8.154;2023-07-13T04:20:01;3.23;;;3.03;;
26594;SDS011;14238;49.496;8.154;2023-07-13T04:22:28;3.57;;;2.70;;
26594;SDS011;14238;49.496;8.154;2023-07-13T04:24:54;2.70;;;2.50;;
26594;SDS011;14238;49.496;8.154;2023-07-13T04:27:19;4.03;;;2.60;;
26594;SDS011;14238;49.496;8.154;2023-07-13T04:29:45;3.00;;;2.80;;
26594;SDS011;14238;49.496;8.154;2023-07-13T04:32:10;4.40;;;2.53;;
26594;SDS011;14238;49.496;8.154;2023-07-13T04:34:36;2.60;;;2.40;;
26594;SDS011;14238;49.496;8.154;2023-07-13T04:37:01;5.70;;;2.60;;
26594;SDS011;14238;49.496;8.154;2023-07-13T04:39:27;3.13;;;2.93;;
26594;SDS011;14238;49.496;8.154;2023-07-13T04:41:52;3.13;;;2.93;;
26594;SDS011;14238;49.496;8.154;2023-07-13T04:44:18;3.03;;;2.03;;
26594;SDS011;14238;49.496;8.154;2023-07-13T04:46:43;2.67;;;2.57;;
26594;SDS011;14238;49.496;8.154;2023-07-13T04:49:09;3.17;;;2.97;;
26594;SDS011;14238;49.496;8.154;2023-07-13T04:51:34;2.40;;;2.30;;
26594;SDS011;14238;49.496;8.154;2023-07-13T04:54:00;2.60;;;2.40;;
26594;SDS011;14238;49.496;8.154;2023-07-13T04:56:25;2.97;;;2.80;;
26594;SDS011;14238;49.496;8.154;2023-07-13T04:58:51;3.10;;;2.53;;
26594;SDS011;14238;49.496;8.154;2023-07-13T05:01:16;2.53;;;2.43;;
26594;SDS011;14238;49.496;8.154;2023-07-13T05:03:42;2.97;;;2.63;;
26594;SDS011;14238;49.496;8.154;2023-07-13T05:06:08;5.27;;;2.40;;
26594;SDS011;14238;49.496;8.154;2023-07-13T05:08:36;2.80;;;2.60;;
26594;SDS011;14238;49.496;8.154;2023-07-13T05:11:03;1.90;;;1.80;;
26594;SDS011;14238;49.496;8.154;2023-07-13T05:13:30;3.90;;;2.30;;
26594;SDS011;14238;49.496;8.154;2023-07-13T05:15:59;3.63;;;2.57;;
26594;SDS011;14238;49.496;8.154;2023-07-13T05:18:27;2.60;;;2.40;;
26594;SDS011;14238;49.496;8.154;2023-07-13T05:21:00;3.03;;;2.57;;
26594;SDS011;14238;49.496;8.154;2023-07-13T05:23:28;2.80;;;2.27;;
26594;SDS011;14238;49.496;8.154;2023-07-13T05:25:54;2.40;;;2.20;;
26594;SDS011;14238;49.496;8.154;2023-07-13T05:28:20;2.30;;;2.20;;
26594;SDS011;14238;49.496;8.154;2023-07-13T05:30:46;2.63;;;2.20;;
26594;SDS011;14238;49.496;8.154;2023-07-13T05:33:13;2.83;;;1.83;;
26594;SDS011;14238;49.496;8.154;2023-07-13T05:35:38;2.43;;;2.23;;
26594;SDS011;14238;49.496;8.154;2023-07-13T05:38:05;2.10;;;1.90;;
26594;SDS011;14238;49.496;8.154;2023-07-13T05:40:31;5.43;;;2.67;;
26594;SDS011;14238;49.496;8.154;2023-07-13T05:42:56;2.77;;;2.20;;
26594;SDS011;14238;49.496;8.154;2023-07-13T05:45:22;3.17;;;2.07;;
26594;SDS011;14238;49.496;8.154;2023-07-13T05:47:47;1.90;;;1.80;;
26594;SDS011;14238;49.496;8.154;2023-07-13T05:50:13;2.03;;;1.77;;
26594;SDS011;14238;49.496;8.154;2023-07-13T05:52:39;7.30;;;2.23;;
26594;SDS011;14238;49.496;8.154;2023-07-13T05:55:04;2.93;;;2.20;;
26594;SDS011;14238;49.496;8.154;2023-07-13T05:57:30;2.73;;;2.30;;
26594;SDS011;14238;49.496;8.154;2023-07-13T05:59:56;3.57;;;2.17;;
26594;SDS011;14238;49.496;8.154;2023-07-13T06:02:22;3.87;;;2.00;;
26594;SDS011;14238;49.496;8.154;2023-07-13T06:04:48;2.43;;;2.23;;
26594;SDS011;14238;49.496;8.154;2023-07-13T06:07:13;2.97;;;2.27;;
26594;SDS011;14238;49.496;8.154;2023-07-13T06:09:39;2.33;;;2.10;;
26594;SDS011;14238;49.496;8.154;2023-07-13T06:12:05;2.60;;;2.10;;
26594;SDS011;14238;49.496;8.154;2023-07-13T06:14:31;2.37;;;2.10;;
26594;SDS011;14238;49.496;8.154;2023-07-13T06:16:56;2.17;;;1.83;;
26594;SDS011;14238;49.496;8.154;2023-07-13T06:19:22;2.50;;;2.30;;
26594;SDS011;14238;49.496;8.154;2023-07-13T06:21:47;2.37;;;1.90;;
26594;SDS011;14238;49.496;8.154;2023-07-13T06:24:13;2.27;;;1.97;;
26594;SDS011;14238;49.496;8.154;2023-07-13T06:26:38;2.43;;;2.20;;
26594;SDS011;14238;49.496;8.154;2023-07-13T06:29:04;6.70;;;2.07;;
26594;SDS011;14238;49.496;8.154;2023-07-13T06:31:30;2.40;;;1.83;;
26594;SDS011;14238;49.496;8.154;2023-07-13T06:33:56;2.73;;;1.80;;
26594;SDS011;14238;49.496;8.154;2023-07-13T06:36:21;2.03;;;1.87;;
26594;SDS011;14238;49.496;8.154;2023-07-13T06:38:47;4.13;;;1.80;;
26594;SDS011;14238;49.496;8.154;2023-07-13T06:41:12;2.73;;;1.80;;
26594;SDS011;14238;49.496;8.154;2023-07-13T06:43:38;2.20;;;1.80;;
26594;SDS011;14238;49.496;8.154;2023-07-13T06:46:03;2.30;;;1.73;;
26594;SDS011;14238;49.496;8.154;2023-07-13T06:48:29;1.90;;;1.80;;
26594;SDS011;14238;49.496;8.154;2023-07-13T06:50:55;5.33;;;2.20;;
26594;SDS011;14238;49.496;8.154;2023-07-13T06:53:21;2.13;;;1.93;;
26594;SDS011;14238;49.496;8.154;2023-07-13T06:55:47;4.30;;;2.50;;
26594;SDS011;14238;49.496;8.154;2023-07-13T06:58:14;2.70;;;2.07;;
26594;SDS011;14238;49.496;8.154;2023-07-13T07:00:40;2.13;;;1.93;;
26594;SDS011;14238;49.496;8.154;2023-07-13T07:03:06;6.03;;;2.10;;
26594;SDS011;14238;49.496;8.154;2023-07-13T07:05:32;4.03;;;2.13;;
26594;SDS011;14238;49.496;8.154;2023-07-13T07:07:58;5.83;;;1.90;;
26594;SDS011;14238;49.496;8.154;2023-07-13T07:10:24;2.27;;;2.07;;
26594;SDS011;14238;49.496;8.154;2023-07-13T07:12:50;2.90;;;2.00;;
26594;SDS011;14238;49.496;8.154;2023-07-13T07:15:16;4.40;;;1.80;;
26594;SDS011;14238;49.496;8.154;2023-07-13T07:17:42;2.50;;;1.90;;
26594;SDS011;14238;49.496;8.154;2023-07-13T07:20:08;2.33;;;2.00;;
26594;SDS011;14238;49.496;8.154;2023-07-13T07:22:34;3.27;;;1.70;;
26594;SDS011;14238;49.496;8.154;2023-07-13T07:25:00;2.10;;;2.00;;
26594;SDS011;14238;49.496;8.154;2023-07-13T07:27:26;1.70;;;1.60;;
26594;SDS011;14238;49.496;8.154;2023-07-13T07:29:51;2.30;;;1.50;;
26594;SDS011;14238;49.496;8.154;2023-07-13T07:32:17;2.27;;;1.83;;
26594;SDS011;14238;49.496;8.154;2023-07-13T07:34:43;1.77;;;1.67;;
26594;SDS011;14238;49.496;8.154;2023-07-13T07:37:10;3.73;;;1.50;;
26594;SDS011;14238;49.496;8.154;2023-07-13T07:39:37;2.90;;;1.93;;
26594;SDS011;14238;49.496;8.154;2023-07-13T07:42:03;3.27;;;1.90;;
26594;SDS011;14238;49.496;8.154;2023-07-13T07:44:28;1.80;;;1.70;;
26594;SDS011;14238;49.496;8.154;2023-07-13T07:46:56;2.83;;;1.67;;
26594;SDS011;14238;49.496;8.154;2023-07-13T07:49:21;3.40;;;1.77;;
26594;SDS011;14238;49.496;8.154;2023-07-13T07:51:47;2.40;;;1.97;;
26594;SDS011;14238;49.496;8.154;2023-07-13T07:54:12;2.53;;;1.50;;
26594;SDS011;14238;49.496;8.154;2023-07-13T07:56:39;2.03;;;1.70;;
26594;SDS011;14238;49.496;8.154;2023-07-13T07:59:05;3.30;;;1.60;;
26594;SDS011;14238;49.496;8.154;2023-07-13T08:01:31;2.40;;;2.13;;
26594;SDS011;14238;49.496;8.154;2023-07-13T08:03:56;2.93;;;1.80;;
26594;SDS011;14238;49.496;8.154;2023-07-13T08:06:22;1.93;;;1.67;;
26594;SDS011;14238;49.496;8.154;2023-07-13T08:08:48;2.93;;;1.77;;
26594;SDS011;14238;49.496;8.154;2023-07-13T08:11:13;3.33;;;2.20;;
26594;SDS011;14238;49.496;8.154;2023-07-13T08:13:39;2.30;;;1.90;;
26594;SDS011;14238;49.496;8.154;2023-07-13T08:16:05;2.50;;;1.60;;
26594;SDS011;14238;49.496;8.154;2023-07-13T08:18:31;2.03;;;1.83;;
26594;SDS011;14238;49.496;8.154;2023-07-13T08:20:57;6.23;;;2.07;;
26594;SDS011;14238;49.496;8.154;2023-07-13T08:23:23;1.80;;;1.70;;
26594;SDS011;14238;49.496;8.154;2023-07-13T08:25:53;4.17;;;1.93;;
26594;SDS011;14238;49.496;8.154;2023-07-13T08:28:19;3.60;;;1.80;;
26594;SDS011;14238;49.496;8.154;2023-07-13T08:30:46;2.50;;;1.90;;
26594;SDS011;14238;49.496;8.154;2023-07-13T08:33:15;1.90;;;1.20;;
26594;SDS011;14238;49.496;8.154;2023-07-13T08:35:41;1.80;;;1.50;;
26594;SDS011;14238;49.496;8.154;2023-07-13T08:38:06;2.93;;;1.80;;
26594;SDS011;14238;49.496;8.154;2023-07-13T08:40:32;2.57;;;1.63;;
26594;SDS011;14238;49.496;8.154;2023-07-13T08:42:59;2.50;;;1.90;;
26594;SDS011;14238;49.496;8.154;2023-07-13T08:45:44;3.33;;;2.00;;
26594;SDS011;14238;49.496;8.154;2023-07-13T08:48:18;2.50;;;1.80;;
26594;SDS011;14238;49.496;8.154;2023-07-13T08:53:47;8.70;;;2.10;;
26594;SDS011;14238;49.496;8.154;2023-07-13T08:56:19;4.70;;;1.90;;
26594;SDS011;14238;49.496;8.154;2023-07-13T08:58:48;3.20;;;1.77;;
26594;SDS011;14238;49.496;8.154;2023-07-13T09:04:14;3.60;;;1.70;;
26594;SDS011;14238;49.496;8.154;2023-07-13T09:06:49;2.27;;;1.60;;
26594;SDS011;14238;49.496;8.154;2023-07-13T09:09:36;2.33;;;1.90;;
26594;SDS011;14238;49.496;8.154;2023-07-13T09:14:48;1.77;;;1.53;;
26594;SDS011;14238;49.496;8.154;2023-07-13T09:17:18;2.10;;;1.40;;
26594;SDS011;14238;49.496;8.154;2023-07-13T09:19:49;3.03;;;1.70;;
26594;SDS011;14238;49.496;8.154;2023-07-13T09:22:20;1.97;;;1.77;;
26594;SDS011;14238;49.496;8.154;2023-07-13T09:27:18;2.33;;;1.60;;
26594;SDS011;14238;49.496;8.154;2023-07-13T09:30:02;2.27;;;1.53;;
26594;SDS011;14238;49.496;8.154;2023-07-13T09:32:39;2.90;;;1.57;;
26594;SDS011;14238;49.496;8.154;2023-07-13T09:35:16;2.67;;;1.53;;
26594;SDS011;14238;49.496;8.154;2023-07-13T09:37:45;5.60;;;1.90;;
26594;SDS011;14238;49.496;8.154;2023-07-13T09:40:17;2.83;;;1.43;;
26594;SDS011;14238;49.496;8.154;2023-07-13T09:42:55;1.87;;;1.20;;
26594;SDS011;14238;49.496;8.154;2023-07-13T09:45:27;2.30;;;1.60;;
26594;SDS011;14238;49.496;8.154;2023-07-13T09:48:15;1.30;;;1.00;;
26594;SDS011;14238;49.496;8.154;2023-07-13T09:50:41;2.87;;;2.40;;
26594;SDS011;14238;49.496;8.154;2023-07-13T09:53:11;2.80;;;1.43;;
26594;SDS011;14238;49.496;8.154;2023-07-13T09:55:38;1.53;;;1.43;;
26594;SDS011;14238;49.496;8.154;2023-07-13T10:00:37;3.40;;;1.87;;
26594;SDS011;14238;49.496;8.154;2023-07-13T10:05:47;2.63;;;2.00;;
26594;SDS011;14238;49.496;8.154;2023-07-13T10:10:45;1.50;;;1.30;;
26594;SDS011;14238;49.496;8.154;2023-07-13T10:13:31;2.20;;;1.47;;
26594;SDS011;14238;49.496;8.154;2023-07-13T10:16:01;2.47;;;1.50;;
26594;SDS011;14238;49.496;8.154;2023-07-13T10:18:31;3.17;;;1.53;;
26594;SDS011;14238;49.496;8.154;2023-07-13T10:21:14;1.67;;;1.43;;
26594;SDS011;14238;49.496;8.154;2023-07-13T10:23:43;3.30;;;1.50;;
26594;SDS011;14238;49.496;8.154;2023-07-13T10:26:17;1.50;;;1.40;;
26594;SDS011;14238;49.496;8.154;2023-07-13T10:28:47;2.20;;;1.53;;
26594;SDS011;14238;49.496;8.154;2023-07-13T10:31:18;1.80;;;1.33;;
26594;SDS011;14238;49.496;8.154;2023-07-13T10:33:45;1.70;;;1.60;;
26594;SDS011;14238;49.496;8.154;2023-07-13T10:36:20;2.50;;;1.67;;
26594;SDS011;14238;49.496;8.154;2023-07-13T10:39:10;3.47;;;1.70;;
26594;SDS011;14238;49.496;8.154;2023-07-13T10:41:52;1.57;;;1.47;;
26594;SDS011;14238;49.496;8.154;2023-07-13T10:44:28;1.37;;;1.30;;
26594;SDS011;14238;49.496;8.154;2023-07-13T10:46:55;2.13;;;1.80;;
26594;SDS011;14238;49.496;8.154;2023-07-13T10:49:28;1.77;;;1.67;;
26594;SDS011;14238;49.496;8.154;2023-07-13T10:51:55;1.60;;;1.30;;
26594;SDS011;14238;49.496;8.154;2023-07-13T10:54:26;1.50;;;1.40;;
26594;SDS011;14238;49.496;8.154;2023-07-13T10:57:07;3.37;;;1.53;;
26594;SDS011;14238;49.496;8.154;2023-07-13T10:59:45;3.27;;;1.73;;
26594;SDS011;14238;49.496;8.154;2023-07-13T11:02:33;2.20;;;2.10;;
26594;SDS011;14238;49.496;8.154;2023-07-13T11:04:58;1.70;;;1.60;;
26594;SDS011;14238;49.496;8.154;2023-07-13T11:11:32;1.40;;;1.30;;
26594;SDS011;14238;49.496;8.154;2023-07-13T11:21:27;1.70;;;1.60;;
26594;SDS011;14238;49.496;8.154;2023-07-13T11:31:57;4.47;;;1.47;;
26594;SDS011;14238;49.496;8.154;2023-07-13T11:34:35;4.50;;;1.77;;
26594;SDS011;14238;49.496;8.154;2023-07-13T11:37:03;1.67;;;1.37;;
26594;SDS011;14238;49.496;8.154;2023-07-13T11:39:36;1.97;;;1.77;;
26594;SDS011;14238;49.496;8.154;2023-07-13T11:42:07;1.77;;;1.67;;
26594;SDS011;14238;49.496;8.154;2023-07-13T11:44:41;1.63;;;1.53;;
26594;SDS011;14238;49.496;8.154;2023-07-13T11:47:10;2.43;;;1.63;;
26594;SDS011;14238;49.496;8.154;2023-07-13T11:49:43;2.57;;;1.70;;
26594;SDS011;14238;49.496;8.154;2023-07-13T11:52:14;1.57;;;1.47;;
26594;SDS011;14238;49.496;8.154;2023-07-13T11:54:46;1.73;;;1.60;;
26594;SDS011;14238;49.496;8.154;2023-07-13T11:57:33;2.80;;;1.80;;
26594;SDS011;14238;49.496;8.154;2023-07-13T12:00:03;2.40;;;1.83;;
26594;SDS011;14238;49.496;8.154;2023-07-13T12:02:52;4.20;;;1.60;;
26594;SDS011;14238;49.496;8.154;2023-07-13T12:05:20;1.70;;;1.60;;
26594;SDS011;14238;49.496;8.154;2023-07-13T12:07:46;1.93;;;1.70;;
26594;SDS011;14238;49.496;8.154;2023-07-13T12:10:20;2.13;;;2.00;;
26594;SDS011;14238;49.496;8.154;2023-07-13T12:15:38;2.40;;;1.70;;
26594;SDS011;14238;49.496;8.154;2023-07-13T12:18:21;2.90;;;2.10;;
26594;SDS011;14238;49.496;8.154;2023-07-13T12:20:55;1.93;;;1.57;;
26594;SDS011;14238;49.496;8.154;2023-07-13T12:23:29;2.13;;;1.93;;
26594;SDS011;14238;49.496;8.154;2023-07-13T12:25:58;2.40;;;1.50;;
26594;SDS011;14238;49.496;8.154;2023-07-13T12:28:32;4.40;;;1.90;;
26594;SDS011;14238;49.496;8.154;2023-07-13T12:31:05;2.30;;;1.80;;
26594;SDS011;14238;49.496;8.154;2023-07-13T12:33:32;3.93;;;1.70;;
26594;SDS011;14238;49.496;8.154;2023-07-13T12:36:00;2.40;;;1.53;;
26594;SDS011;14238;49.496;8.154;2023-07-13T12:38:28;3.83;;;2.10;;
26594;SDS011;14238;49.496;8.154;2023-07-13T12:40:54;1.67;;;1.57;;
26594;SDS011;14238;49.496;8.154;2023-07-13T12:43:20;1.80;;;1.60;;
26594;SDS011;14238;49.496;8.154;2023-07-13T12:45:54;1.87;;;1.77;;
26594;SDS011;14238;49.496;8.154;2023-07-13T12:48:21;2.00;;;1.90;;
26594;SDS011;14238;49.496;8.154;2023-07-13T12:50:47;2.63;;;1.73;;
26594;SDS011;14238;49.496;8.154;2023-07-13T12:53:16;4.60;;;1.80;;
26594;SDS011;14238;49.496;8.154;2023-07-13T12:55:46;1.87;;;1.70;;
26594;SDS011;14238;49.496;8.154;2023-07-13T12:58:25;2.80;;;1.80;;
26594;SDS011;14238;49.496;8.154;2023-07-13T13:00:57;2.27;;;1.60;;
26594;SDS011;14238;49.496;8.154;2023-07-13T13:03:31;1.50;;;1.40;;
26594;SDS011;14238;49.496;8.154;2023-07-13T13:06:03;2.73;;;1.87;;
26594;SDS011;14238;49.496;8.154;2023-07-13T13:08:50;1.90;;;1.57;;
26594;SDS011;14238;49.496;8.154;2023-07-13T13:11:18;3.33;;;1.97;;
26594;SDS011;14238;49.496;8.154;2023-07-13T13:13:45;1.77;;;1.67;;
26594;SDS011;14238;49.496;8.154;2023-07-13T13:18:47;2.80;;;1.93;;
26594;SDS011;14238;49.496;8.154;2023-07-13T13:21:14;2.77;;;1.83;;
26594;SDS011;14238;49.496;8.154;2023-07-13T13:23:41;3.57;;;1.47;;
26594;SDS011;14238;49.496;8.154;2023-07-13T13:26:09;2.23;;;1.53;;
26594;SDS011;14238;49.496;8.154;2023-07-13T13:28:36;2.30;;;1.57;;
26594;SDS011;14238;49.496;8.154;2023-07-13T13:31:02;2.00;;;1.77;;
26594;SDS011;14238;49.496;8.154;2023-07-13T13:33:27;1.83;;;1.70;;
26594;SDS011;14238;49.496;8.154;2023-07-13T13:35:53;3.90;;;2.10;;
26594;SDS011;14238;49.496;8.154;2023-07-13T13:38:26;2.50;;;2.30;;
26594;SDS011;14238;49.496;8.154;2023-07-13T13:40:53;2.97;;;2.00;;
26594;SDS011;14238;49.496;8.154;2023-07-13T13:43:23;1.50;;;1.40;;
26594;SDS011;14238;49.496;8.154;2023-07-13T13:45:51;3.27;;;2.03;;
26594;SDS011;14238;49.496;8.154;2023-07-13T13:48:20;4.10;;;1.70;;
26594;SDS011;14238;49.496;8.154;2023-07-13T13:50:55;1.70;;;1.60;;
26594;SDS011;14238;49.496;8.154;2023-07-13T13:53:21;2.73;;;1.97;;
26594;SDS011;14238;49.496;8.154;2023-07-13T13:55:48;2.07;;;1.70;;
26594;SDS011;14238;49.496;8.154;2023-07-13T13:58:14;5.70;;;1.87;;
26594;SDS011;14238;49.496;8.154;2023-07-13T14:00:40;3.00;;;1.80;;
26594;SDS011;14238;49.496;8.154;2023-07-13T14:03:15;2.00;;;1.80;;
26594;SDS011;14238;49.496;8.154;2023-07-13T14:05:46;2.80;;;1.90;;
26594;SDS011;14238;49.496;8.154;2023-07-13T14:08:16;4.00;;;1.67;;
26594;SDS011;14238;49.496;8.154;2023-07-13T14:10:46;2.00;;;1.10;;
26594;SDS011;14238;49.496;8.154;2023-07-13T14:13:16;2.00;;;1.90;;
26594;SDS011;14238;49.496;8.154;2023-07-13T14:15:45;1.73;;;1.63;;
26594;SDS011;14238;49.496;8.154;2023-07-13T14:18:10;2.63;;;1.93;;
26594;SDS011;14238;49.496;8.154;2023-07-13T14:20:37;1.80;;;1.70;;
26594;SDS011;14238;49.496;8.154;2023-07-13T14:23:02;5.10;;;2.00;;
26594;SDS011;14238;49.496;8.154;2023-07-13T14:25:28;2.07;;;1.87;;
26594;SDS011;14238;49.496;8.154;2023-07-13T14:27:55;2.53;;;1.60;;
26594;SDS011;14238;49.496;8.154;2023-07-13T14:30:29;2.90;;;1.53;;
26594;SDS011;14238;49.496;8.154;2023-07-13T14:32:54;1.70;;;1.60;;
26594;SDS011;14238;49.496;8.154;2023-07-13T14:35:20;2.67;;;1.80;;
26594;SDS011;14238;49.496;8.154;2023-07-13T14:37:48;3.43;;;1.63;;
26594;SDS011;14238;49.496;8.154;2023-07-13T14:40:18;1.70;;;1.60;;
26594;SDS011;14238;49.496;8.154;2023-07-13T14:42:49;1.23;;;1.23;;
26594;SDS011;14238;49.496;8.154;2023-07-13T14:45:15;1.50;;;1.40;;
26594;SDS011;14238;49.496;8.154;2023-07-13T14:47:42;2.10;;;1.90;;
26594;SDS011;14238;49.496;8.154;2023-07-13T14:50:15;1.80;;;1.70;;
26594;SDS011;14238;49.496;8.154;2023-07-13T14:52:46;1.60;;;1.50;;
26594;SDS011;14238;49.496;8.154;2023-07-13T14:55:14;1.47;;;1.37;;
26594;SDS011;14238;49.496;8.154;2023-07-13T14:57:41;2.40;;;1.60;;
26594;SDS011;14238;49.496;8.154;2023-07-13T15:00:13;1.70;;;1.37;;
26594;SDS011;14238;49.496;8.154;2023-07-13T15:02:50;1.90;;;1.67;;
26594;SDS011;14238;49.496;8.154;2023-07-13T15:05:19;1.60;;;1.43;;
26594;SDS011;14238;49.496;8.154;2023-07-13T15:07:48;3.63;;;1.40;;
26594;SDS011;14238;49.496;8.154;2023-07-13T15:10:24;1.73;;;1.63;;
26594;SDS011;14238;49.496;8.154;2023-07-13T15:12:52;1.57;;;1.47;;
26594;SDS011;14238;49.496;8.154;2023-07-13T15:15:18;1.97;;;1.40;;
26594;SDS011;14238;49.496;8.154;2023-07-13T15:17:45;2.37;;;1.63;;
26594;SDS011;14238;49.496;8.154;2023-07-13T15:20:21;2.50;;;1.70;;
26594;SDS011;14238;49.496;8.154;2023-07-13T15:22:52;5.90;;;2.07;;
26594;SDS011;14238;49.496;8.154;2023-07-13T15:25:18;1.70;;;1.60;;
26594;SDS011;14238;49.496;8.154;2023-07-13T15:27:46;1.93;;;1.30;;
26594;SDS011;14238;49.496;8.154;2023-07-13T15:30:12;2.63;;;1.23;;
26594;SDS011;14238;49.496;8.154;2023-07-13T15:32:38;2.67;;;1.63;;
26594;SDS011;14238;49.496;8.154;2023-07-13T15:35:04;2.10;;;1.83;;
26594;SDS011;14238;49.496;8.154;2023-07-13T15:37:36;1.83;;;1.40;;
26594;SDS011;14238;49.496;8.154;2023-07-13T15:40:01;1.40;;;1.20;;